Time;durP1;ratioP1;P1;durP2;ratioP2;P2;SDS_P1;SDS_P2;PMS_P1;PMS_P2;Temp;Humidity;BMP_temperature;BMP_pressure;BME280_temperature;BME280_humidity;BME280_pressure;Samples;Min_cycle;Max_cycle;Signal;HPM_P1;HPM_P2
2023/01/12 00:01:16;;;;;;;17.77;5.68;;;;;;;5.44;87.60;100935.06;4967225;28;20107;-53
2023/01/12 00:03:41;;;;;;;14.07;5.88;;;;;;;5.44;87.52;100937.69;4965134;28;20134;-51
2023/01/12 00:06:06;;;;;;;16.52;5.82;;;;;;;5.44;88.00;100934.22;4965336;28;20083;-53
2023/01/12 00:08:35;;;;;;;21.65;6.25;;;;;;;5.43;87.64;100937.75;4966672;28;20079;-53
2023/01/12 00:11:01;;;;;;;16.08;5.85;;;;;;;5.41;87.81;100940.38;4965619;28;20189;-53
2023/01/12 00:13:31;;;;;;;20.02;5.88;;;;;;;5.41;87.59;100927.34;4966271;28;20079;-54
2023/01/12 00:18:46;;;;;;;12.07;6.28;;;;;;;5.39;87.45;100926.53;4964620;28;20565;-56
2023/01/12 00:21:12;;;;;;;14.45;7.43;;;;;;;5.38;87.36;100940.47;4970374;28;20107;-53
2023/01/12 00:23:38;;;;;;;15.80;6.57;;;;;;;5.39;87.71;100939.59;4965937;28;20110;-55
2023/01/12 00:26:07;;;;;;;15.98;6.68;;;;;;;5.37;87.26;100928.34;4965285;28;20094;-54
2023/01/12 00:28:39;;;;;;;13.95;5.50;;;;;;;5.38;87.43;100929.19;4968046;28;20079;-54
2023/01/12 00:31:07;;;;;;;15.77;6.38;;;;;;;5.37;87.58;100932.72;4963979;28;20146;-53
2023/01/12 00:33:37;;;;;;;12.70;6.75;;;;;;;5.35;87.41;100924.94;4966374;28;20613;-56
2023/01/12 00:36:10;;;;;;;15.30;5.45;;;;;;;5.32;87.46;100932.88;4963855;28;20083;-52
2023/01/12 00:38:37;;;;;;;14.80;6.28;;;;;;;5.31;87.11;100928.56;4967041;28;20079;-55
2023/01/12 00:41:07;;;;;;;17.25;6.95;;;;;;;5.29;87.41;100930.34;4965103;28;20174;-53
2023/01/12 00:46:17;;;;;;;20.13;6.88;;;;;;;5.25;87.11;100928.75;4969142;28;20089;-54
2023/01/12 00:48:43;;;;;;;23.58;7.05;;;;;;;5.23;87.24;100925.31;4972532;28;20091;-51
2023/01/12 00:51:09;;;;;;;23.00;7.13;;;;;;;5.19;87.39;100928.06;4974401;28;20686;-54
2023/01/12 00:53:35;;;;;;;15.55;6.40;;;;;;;5.17;86.91;100932.47;4972684;28;20075;-55
2023/01/12 00:56:04;;;;;;;17.30;7.82;;;;;;;5.18;86.98;100943.75;4975640;28;20105;-53
2023/01/12 00:58:29;;;;;;;15.40;7.45;;;;;;;5.16;87.34;100946.41;4973164;28;20129;-52
2023/01/12 01:01:04;;;;;;;18.20;7.35;;;;;;;5.14;86.99;100947.38;4970308;28;20130;-54
2023/01/12 01:03:29;;;;;;;20.23;7.38;;;;;;;5.12;87.19;100947.41;4970217;28;20145;-53
2023/01/12 01:06:03;;;;;;;13.60;6.57;;;;;;;5.11;87.34;100937.03;4973512;28;20079;-52
2023/01/12 01:08:28;;;;;;;16.55;6.63;;;;;;;5.10;86.96;100925.72;4973102;28;20086;-52
2023/01/12 01:11:05;;;;;;;22.00;6.65;;;;;;;5.10;86.98;100917.06;4975086;28;20449;-52
2023/01/12 01:13:31;;;;;;;20.52;7.13;;;;;;;5.09;86.85;100924.00;4976568;28;20074;-52
2023/01/12 01:16:00;;;;;;;20.92;7.97;;;;;;;5.06;86.90;100911.09;4975401;28;20075;-55
2023/01/12 01:18:26;;;;;;;17.70;7.93;;;;;;;5.04;86.97;100905.06;4976165;28;20142;-52
2023/01/12 01:20:53;;;;;;;18.20;7.60;;;;;;;5.02;86.86;100904.25;4973449;28;20114;-53
2023/01/12 01:23:18;;;;;;;21.92;7.78;;;;;;;4.99;86.89;100899.97;4971418;28;20102;-53
2023/01/12 01:25:44;;;;;;;19.98;7.43;;;;;;;4.98;86.86;100903.53;4972928;28;20109;-55
2023/01/12 01:28:09;;;;;;;17.15;7.15;;;;;;;4.97;87.25;100913.97;4973241;28;20489;-56
2023/01/12 01:30:35;;;;;;;11.88;5.07;;;;;;;4.95;87.04;100915.78;4970273;28;20505;-52
2023/01/12 01:33:00;;;;;;;15.10;6.97;;;;;;;4.99;86.95;100920.00;4971146;28;20632;-53
2023/01/12 01:35:26;;;;;;;19.75;7.30;;;;;;;5.03;87.14;100922.47;4975156;28;20087;-52
2023/01/12 01:37:51;;;;;;;17.58;7.18;;;;;;;5.03;86.86;100921.63;4972404;28;20082;-51
2023/01/12 01:40:17;;;;;;;12.73;6.32;;;;;;;5.04;86.66;100921.56;4972911;28;20097;-52
2023/01/12 01:42:42;;;;;;;17.85;6.53;;;;;;;5.03;86.60;100908.59;4967297;28;20091;-52
2023/01/12 01:45:12;;;;;;;18.10;6.68;;;;;;;5.03;86.24;100911.19;4967669;28;20075;-52
2023/01/12 01:47:44;;;;;;;13.20;6.45;;;;;;;5.01;86.33;100902.56;4975048;28;20169;-52
2023/01/12 01:50:21;;;;;;;13.45;5.70;;;;;;;5.01;86.12;100906.00;4971320;28;20103;-54
2023/01/12 01:52:51;;;;;;;12.43;5.72;;;;;;;5.03;86.03;100898.16;4967687;28;20138;-53
2023/01/12 01:55:57;;;;;;;12.10;6.03;;;;;;;5.04;85.91;100894.63;4970665;28;20091;-54
2023/01/12 01:58:34;;;;;;;14.55;5.72;;;;;;;5.06;86.10;100874.59;4969221;28;20103;-52
2023/01/12 02:01:00;;;;;;;19.33;7.25;;;;;;;5.07;85.96;100878.88;4967057;28;20109;-54
2023/01/12 02:03:28;;;;;;;14.05;5.68;;;;;;;5.04;85.67;100872.00;4970202;28;20095;-55
2023/01/12 02:05:55;;;;;;;14.82;5.78;;;;;;;5.02;85.83;100865.97;4970457;28;20091;-55
2023/01/12 02:08:42;;;;;;;17.75;6.00;;;;;;;5.01;86.10;100863.44;4970011;28;20086;-54
2023/01/12 02:16:19;;;;;;;11.65;5.35;;;;;;;5.03;86.08;100861.63;4969778;28;20091;-52
2023/01/12 02:16:44;;;;;;;14.18;5.35;;;;;;;5.03;85.86;100862.47;4967886;28;20105;-56
2023/01/12 02:19:35;;;;;;;11.32;5.32;;;;;;;5.04;85.65;100868.56;4967021;28;20083;-54
2023/01/12 02:22:09;;;;;;;9.55;5.50;;;;;;;5.07;85.98;100860.59;4970135;28;20864;-52
2023/01/12 02:25:08;;;;;;;10.25;5.15;;;;;;;5.14;85.74;100864.75;4968978;28;20111;-58
2023/01/12 02:28:01;;;;;;;9.13;4.55;;;;;;;5.24;85.81;100864.41;4966202;28;20130;-53
2023/01/12 02:30:45;;;;;;;19.45;4.28;;;;;;;5.31;85.34;100850.28;4963232;28;20095;-55
2023/01/12 02:33:35;;;;;;;15.45;4.25;;;;;;;5.37;85.05;100839.59;4964100;28;20500;-52
2023/01/12 02:36:00;;;;;;;11.90;4.75;;;;;;;5.43;84.49;100833.34;4964679;28;20170;-54
2023/01/12 02:38:29;;;;;;;11.70;4.57;;;;;;;5.54;85.09;100851.22;4965271;28;20166;-53
2023/01/12 02:42:39;;;;;;;7.53;3.95;;;;;;;5.60;84.64;100841.41;4966399;28;20146;-53
2023/01/12 02:44:08;;;;;;;14.40;4.55;;;;;;;5.67;84.21;100857.75;4964056;28;20095;-54
2023/01/12 02:46:34;;;;;;;9.75;3.85;;;;;;;5.73;84.06;100857.50;4967616;28;20094;-55
2023/01/12 02:49:07;;;;;;;12.30;4.70;;;;;;;5.77;83.96;100863.47;4965310;28;20439;-53
2023/01/12 02:51:36;;;;;;;;;;;;;;;5.77;83.92;100860.84;4967046;28;20166;-54
2023/01/12 02:54:09;;;;;;;11.27;3.38;;;;;;;5.84;83.97;100846.69;4965160;28;19970;-53
2023/01/12 02:56:47;;;;;;;10.65;3.05;;;;;;;5.86;83.74;100852.72;4969515;28;20083;-54
2023/01/12 02:59:33;;;;;;;10.48;3.30;;;;;;;5.91;83.68;100847.31;4958759;28;20094;-55
2023/01/12 03:02:10;;;;;;;11.98;3.47;;;;;;;5.94;83.56;100845.44;4962617;28;20099;-54
2023/01/12 03:04:36;;;;;;;12.93;3.33;;;;;;;5.99;83.38;100840.03;4966259;28;20101;-56
2023/01/12 03:07:01;;;;;;;11.27;4.72;;;;;;;6.01;83.19;100851.31;4966296;28;20704;-55
2023/01/12 03:09:32;;;;;;;11.90;2.47;;;;;;;6.04;83.41;100851.22;4964129;28;20602;-52
2023/01/12 03:12:04;;;;;;;12.10;2.88;;;;;;;6.06;83.27;100845.91;4965969;28;20090;-52
2023/01/12 03:14:34;;;;;;;13.35;3.58;;;;;;;6.07;83.43;100845.88;4966922;28;20546;-52
2023/01/12 03:17:05;;;;;;;12.32;3.25;;;;;;;6.12;83.22;100840.47;4967032;28;20528;-56
2023/01/12 03:19:32;;;;;;;8.38;2.60;;;;;;;6.14;82.96;100833.44;4964927;28;20084;-52
2023/01/12 03:22:07;;;;;;;5.35;1.70;;;;;;;6.17;82.83;100832.44;4962762;28;20169;-56
2023/01/12 03:24:40;;;;;;;15.05;2.47;;;;;;;6.19;82.71;100836.72;4964730;28;20141;-55
2023/01/12 03:27:13;;;;;;;5.60;1.88;;;;;;;6.22;82.92;100836.59;4969989;28;20102;-52
2023/01/12 03:29:51;;;;;;;12.00;2.67;;;;;;;6.24;82.99;100831.31;4965159;28;20565;-51
2023/01/12 03:32:20;;;;;;;9.52;2.53;;;;;;;6.25;83.16;100830.41;4958163;28;20082;-52
2023/01/12 03:34:45;;;;;;;9.80;2.83;;;;;;;6.30;82.86;100819.78;4965528;28;20083;-55
2023/01/12 03:37:17;;;;;;;10.20;2.30;;;;;;;6.30;82.90;100825.84;4963190;28;20193;-51
2023/01/12 03:40:07;;;;;;;7.45;3.60;;;;;;;6.30;82.78;100830.22;4963008;28;20098;-55
2023/01/12 03:43:05;;;;;;;11.20;2.38;;;;;;;6.32;83.29;100834.47;4963955;28;20451;-52
2023/01/12 03:45:44;;;;;;;4.82;1.73;;;;;;;6.32;82.77;100834.47;4975777;28;20162;-52
2023/01/12 03:48:18;;;;;;;14.07;2.40;;;;;;;6.33;83.17;100830.97;4964658;28;20079;-54
2023/01/12 03:50:54;;;;;;;7.07;2.05;;;;;;;6.36;83.17;100841.31;4965446;28;20090;-54
2023/01/12 03:53:22;;;;;;;9.90;2.05;;;;;;;6.35;83.19;100834.38;4965838;28;20067;-54
2023/01/12 03:55:51;;;;;;;6.70;1.70;;;;;;;6.34;83.10;100837.88;4964242;28;20158;-53
2023/01/12 03:58:17;;;;;;;10.90;2.03;;;;;;;6.34;83.39;100819.59;4960638;28;20075;-56
2023/01/12 04:00:43;;;;;;;9.80;2.22;;;;;;;6.36;83.59;100816.91;4961673;28;20134;-51
2023/01/12 04:03:15;;;;;;;14.05;1.98;;;;;;;6.36;82.96;100811.69;4966070;28;20710;-54
2023/01/12 04:05:42;;;;;;;;;;;;;;;6.32;83.26;100807.50;4965314;28;20489;-54
2023/01/12 04:08:08;;;;;;;12.45;2.45;;;;;;;6.33;83.02;100804.81;4959736;28;19998;-56
2023/01/12 04:10:33;;;;;;;10.38;2.33;;;;;;;6.37;82.86;100801.19;4966397;28;20095;-53
2023/01/12 04:12:59;;;;;;;11.55;2.53;;;;;;;6.40;82.87;100795.84;4963973;28;20095;-53
2023/01/12 04:15:24;;;;;;;9.60;2.47;;;;;;;6.42;82.61;100792.31;4965038;28;20098;-54
2023/01/12 04:17:50;;;;;;;9.50;2.25;;;;;;;6.40;82.69;100795.84;4959837;28;20087;-54
2023/01/12 04:20:15;;;;;;;9.82;2.08;;;;;;;6.42;82.49;100787.09;4965794;28;20083;-54
2023/01/12 04:22:42;;;;;;;7.30;1.40;;;;;;;6.42;82.51;100782.69;4966263;28;20087;-52
2023/01/12 04:25:13;;;;;;;8.40;1.88;;;;;;;6.42;82.93;100781.88;4961731;28;20080;-53
2023/01/12 04:27:46;;;;;;;8.93;2.10;;;;;;;6.38;82.48;100778.50;4965954;28;20222;-51
2023/01/12 04:30:11;;;;;;;11.55;2.03;;;;;;;6.31;82.88;100774.44;4961498;28;20231;-52
2023/01/12 04:32:37;;;;;;;7.65;1.80;;;;;;;6.24;83.08;100774.66;4968037;28;20091;-56
2023/01/12 04:35:04;;;;;;;11.35;2.05;;;;;;;6.18;83.17;100771.44;4966244;28;20086;-56
2023/01/12 04:37:32;;;;;;;7.85;1.40;;;;;;;6.07;83.00;100764.88;4965669;28;20087;-56
2023/01/12 04:39:58;;;;;;;9.88;1.90;;;;;;;6.02;83.33;100774.66;4968004;28;20099;-54
2023/01/12 04:45:09;;;;;;;7.47;1.75;;;;;;;6.00;83.28;100773.84;4969306;28;20082;-56
2023/01/12 04:48:11;;;;;;;7.43;1.75;;;;;;;5.99;83.49;100763.44;4967514;28;20095;-53
2023/01/12 04:50:38;;;;;;;7.70;2.08;;;;;;;6.03;83.72;100762.47;4966511;28;20457;-53
2023/01/12 04:53:05;;;;;;;7.15;1.23;;;;;;;6.05;83.41;100752.81;4965931;28;20071;-54
2023/01/12 04:55:35;;;;;;;7.75;1.70;;;;;;;6.01;83.13;100757.28;4981904;28;20130;-55
2023/01/12 04:58:00;;;;;;;11.15;1.60;;;;;;;6.02;83.27;100752.91;4967246;28;20134;-56
2023/01/12 05:00:26;;;;;;;3.55;1.45;;;;;;;6.01;83.39;100757.28;4967969;28;20103;-56
2023/01/12 05:06:13;;;;;;;4.47;1.38;;;;;;;5.94;83.59;100761.00;4969986;28;20094;-56
2023/01/12 05:11:27;;;;;;;8.65;1.80;;;;;;;5.89;83.50;100752.50;4966751;28;20173;-53
2023/01/12 05:13:54;;;;;;;5.30;1.77;;;;;;;5.90;83.51;100744.59;4970032;28;20075;-58
2023/01/12 05:16:20;;;;;;;11.02;2.50;;;;;;;6.00;83.42;100744.28;4969651;28;20166;-55
2023/01/12 05:18:45;;;;;;;9.68;2.22;;;;;;;6.05;83.07;100753.66;4965763;28;20170;-56
2023/01/12 05:21:12;;;;;;;7.38;2.15;;;;;;;6.10;82.71;100746.50;4965871;28;20091;-56
2023/01/12 05:23:37;;;;;;;7.75;1.65;;;;;;;6.16;83.12;100752.38;4965320;28;20137;-54
2023/01/12 05:26:04;;;;;;;4.95;1.23;;;;;;;6.20;82.83;100751.34;4965858;28;20083;-56
2023/01/12 05:28:30;;;;;;;11.50;1.95;;;;;;;6.25;82.74;100754.63;4969199;28;20082;-56
2023/01/12 05:31:03;;;;;;;7.20;2.13;;;;;;;6.32;82.63;100743.00;4963370;28;20106;-54
2023/01/12 05:33:28;;;;;;;10.48;2.10;;;;;;;6.36;82.68;100747.22;4970508;28;20086;-53
2023/01/12 05:35:54;;;;;;;6.88;2.20;;;;;;;6.39;82.62;100748.84;4968375;28;20079;-53
2023/01/12 05:38:19;;;;;;;13.25;2.17;;;;;;;6.36;82.36;100741.97;4966919;28;20115;-54
2023/01/12 05:40:45;;;;;;;9.75;2.00;;;;;;;6.35;82.33;100736.84;4966599;28;20111;-53
2023/01/12 05:45:56;;;;;;;10.50;1.77;;;;;;;6.42;81.96;100742.66;4968100;28;20083;-56
2023/01/12 05:48:21;;;;;;;6.75;1.50;;;;;;;6.46;82.03;100741.59;4963789;28;20095;-51
2023/01/12 05:50:47;;;;;;;10.52;1.67;;;;;;;6.49;81.92;100746.72;4969603;28;20101;-52
2023/01/12 05:53:12;;;;;;;10.40;1.73;;;;;;;6.52;82.12;100741.38;4976040;23;20111;-57
2023/01/12 05:55:38;;;;;;;11.48;1.73;;;;;;;6.55;82.00;100742.09;4939340;28;20562;-61
2023/01/12 05:58:03;;;;;;;5.00;1.95;;;;;;;6.61;81.69;100735.75;4934502;28;20114;-58
2023/01/12 06:00:29;;;;;;;9.30;1.50;;;;;;;6.63;81.86;100738.31;4942406;28;20108;-58
2023/01/12 06:02:54;;;;;;;9.02;1.63;;;;;;;6.61;81.71;100735.75;4941716;28;20088;-61
2023/01/12 06:05:20;;;;;;;13.07;2.10;;;;;;;6.60;81.70;100744.50;4927876;29;20732;-58
2023/01/12 06:07:45;;;;;;;5.30;1.52;;;;;;;6.60;81.83;100733.22;4932406;28;20086;-59
2023/01/12 06:10:11;;;;;;;5.13;1.42;;;;;;;6.60;81.47;100736.66;4926975;29;20110;-63
2023/01/12 06:15:20;;;;;;;15.05;1.83;;;;;;;6.63;81.27;100728.69;4924465;29;20094;-56
2023/01/12 06:17:46;;;;;;;8.40;1.45;;;;;;;6.66;81.64;100727.69;4949184;28;20080;-57
2023/01/12 06:20:15;;;;;;;4.90;2.40;;;;;;;6.67;80.93;100725.03;4932012;29;20089;-57
2023/01/12 06:22:42;;;;;;;7.78;1.50;;;;;;;6.68;81.45;100721.50;4927719;29;20088;-57
2023/01/12 06:25:08;;;;;;;14.27;2.88;;;;;;;6.70;81.44;100719.69;4931688;29;20084;-59
2023/01/12 06:27:34;;;;;;;9.88;1.58;;;;;;;6.69;81.50;100715.38;4934159;29;20092;-57
2023/01/12 06:30:00;;;;;;;9.60;1.73;;;;;;;6.68;81.39;100716.28;4928838;29;20080;-56
2023/01/12 06:32:27;;;;;;;9.63;1.55;;;;;;;6.69;81.33;100711.91;4928426;29;20158;-58
2023/01/12 06:34:53;;;;;;;14.32;2.15;;;;;;;6.70;81.42;100704.00;4932452;29;20155;-59
2023/01/12 06:37:18;;;;;;;6.63;1.25;;;;;;;6.72;81.08;100703.94;4930428;29;20075;-57
2023/01/12 06:39:44;;;;;;;9.70;1.67;;;;;;;6.75;80.91;100701.19;4926001;29;20087;-58
2023/01/12 06:42:27;;;;;;;12.90;2.53;;;;;;;6.78;80.90;100697.59;4928799;29;20092;-59
2023/01/12 06:44:54;;;;;;;5.60;1.35;;;;;;;6.78;81.02;100701.06;4932620;29;20111;-55
2023/01/12 06:47:19;;;;;;;5.35;1.67;;;;;;;6.74;80.91;100699.47;4929305;29;20084;-57
2023/01/12 06:49:45;;;;;;;11.18;2.30;;;;;;;6.66;80.87;100697.19;4931516;29;20098;-59
2023/01/12 06:52:10;;;;;;;8.70;1.52;;;;;;;6.57;81.03;100697.59;4925604;29;20159;-59
2023/01/12 06:54:36;;;;;;;9.23;2.20;;;;;;;6.51;81.41;100700.44;4933986;29;20601;-61
2023/01/12 06:57:02;;;;;;;8.60;1.90;;;;;;;6.50;81.50;100703.97;4929775;29;20088;-59
2023/01/12 06:59:27;;;;;;;10.70;1.67;;;;;;;6.52;81.18;100700.38;4928599;29;20088;-58
2023/01/12 07:01:52;;;;;;;5.50;1.65;;;;;;;6.58;81.50;100695.81;4931965;29;20084;-59
2023/01/12 07:04:18;;;;;;;7.68;1.35;;;;;;;6.63;81.07;100701.72;4927731;29;20589;-59
2023/01/12 07:06:43;;;;;;;6.55;1.65;;;;;;;6.65;81.46;100700.72;4930160;29;20092;-62
2023/01/12 07:09:09;;;;;;;9.10;1.60;;;;;;;6.67;81.07;100698.03;4939160;29;20072;-59
2023/01/12 07:11:34;;;;;;;10.88;1.95;;;;;;;6.64;81.15;100693.78;4927220;29;20458;-61
2023/01/12 07:14:00;;;;;;;9.40;1.60;;;;;;;6.61;81.23;100698.31;4929227;29;20152;-56
2023/01/12 07:16:25;;;;;;;8.13;1.63;;;;;;;6.59;81.35;100690.50;4933236;29;20084;-58
2023/01/12 07:18:51;;;;;;;9.85;2.25;;;;;;;6.57;81.19;100692.38;4929250;29;20571;-59
2023/01/12 07:21:18;;;;;;;14.63;2.17;;;;;;;6.52;81.04;100678.63;4929813;29;20106;-58
2023/01/12 07:23:44;;;;;;;10.40;1.73;;;;;;;6.47;81.19;100685.78;4930568;29;20108;-62
2023/01/12 07:26:10;;;;;;;7.68;1.73;;;;;;;6.42;81.37;100687.78;4931556;29;20444;-64
2023/01/12 07:28:36;;;;;;;9.07;1.65;;;;;;;6.43;81.23;100681.63;4934600;29;20095;-58
2023/01/12 07:31:04;;;;;;;5.88;1.52;;;;;;;6.45;81.68;100679.78;4925878;29;20088;-57
2023/01/12 07:33:29;;;;;;;9.25;2.33;;;;;;;6.44;81.51;100678.06;4929718;29;20147;-60
2023/01/12 07:35:58;;;;;;;9.10;2.05;;;;;;;6.48;81.50;100682.28;4933287;29;20096;-64
2023/01/12 07:38:25;;;;;;;9.15;1.52;;;;;;;6.52;81.36;100674.22;4931226;29;20075;-59
2023/01/12 07:40:50;;;;;;;4.00;1.30;;;;;;;6.56;80.93;100664.50;4929947;29;20089;-55
2023/01/12 07:43:17;;;;;;;10.82;2.17;;;;;;;6.59;80.63;100666.97;4933265;29;20088;-59
2023/01/12 07:45:44;;;;;;;8.30;1.77;;;;;;;6.61;81.19;100667.75;4929403;29;20097;-59
2023/01/12 07:48:10;;;;;;;10.55;2.10;;;;;;;6.65;81.06;100665.91;4929582;29;20076;-55
2023/01/12 07:50:36;;;;;;;10.95;1.90;;;;;;;6.69;81.17;100668.31;4932325;29;20087;-59
2023/01/12 07:53:02;;;;;;;9.15;2.45;;;;;;;6.77;80.55;100670.59;4930798;29;20436;-56
2023/01/12 07:55:31;;;;;;;14.55;2.35;;;;;;;6.80;80.50;100657.38;4930000;29;20111;-58
2023/01/12 07:57:57;;;;;;;9.77;1.70;;;;;;;6.78;80.75;100655.75;4926260;29;20492;-58
2023/01/12 08:00:25;;;;;;;6.55;1.60;;;;;;;6.80;80.38;100656.53;4929346;29;20080;-57
2023/01/12 08:02:51;;;;;;;14.32;1.95;;;;;;;6.83;80.52;100657.22;4929575;29;20085;-56
2023/01/12 08:05:18;;;;;;;5.03;1.42;;;;;;;6.88;80.42;100648.34;4934213;29;20080;-61
2023/01/12 08:07:44;;;;;;;4.25;1.73;;;;;;;6.96;80.39;100652.31;4926866;29;20083;-55
2023/01/12 08:10:10;;;;;;;8.40;1.95;;;;;;;7.03;80.18;100649.44;4932051;29;20084;-55
2023/01/12 08:12:36;;;;;;;9.65;1.90;;;;;;;7.09;80.19;100651.78;4929369;29;20550;-57
2023/01/12 08:15:03;;;;;;;7.82;1.63;;;;;;;7.14;79.88;100647.19;4929945;29;20076;-56
2023/01/12 08:17:33;;;;;;;9.27;2.03;;;;;;;7.19;79.73;100642.59;4932411;29;20095;-59
2023/01/12 08:20:04;;;;;;;7.30;2.25;;;;;;;7.25;79.15;100631.00;4928499;29;20551;-56
2023/01/12 08:22:36;;;;;;;10.05;1.70;;;;;;;7.30;79.22;100642.97;4927636;29;20143;-58
2023/01/12 08:25:26;;;;;;;5.72;1.77;;;;;;;7.33;78.87;100644.59;4933222;29;20586;-56
2023/01/12 08:27:55;;;;;;;4.88;1.70;;;;;;;7.37;79.31;100634.81;4931805;29;20104;-59
2023/01/12 08:30:23;;;;;;;10.68;1.65;;;;;;;7.42;79.00;100638.09;4930568;29;20163;-56
2023/01/12 08:32:49;;;;;;;7.50;1.40;;;;;;;7.44;79.08;100638.88;4925134;29;20159;-59
2023/01/12 08:35:19;;;;;;;9.23;1.65;;;;;;;7.47;78.79;100626.47;4928745;29;20163;-60
2023/01/12 08:37:45;;;;;;;7.57;1.52;;;;;;;7.53;78.86;100630.56;4928990;29;20443;-58
2023/01/12 08:40:12;;;;;;;7.80;1.48;;;;;;;7.57;78.54;100637.38;4927258;29;20090;-54
2023/01/12 08:42:38;;;;;;;6.47;1.20;;;;;;;7.61;78.49;100635.44;4930321;29;20088;-57
2023/01/12 08:45:06;;;;;;;7.35;1.85;;;;;;;7.63;78.54;100625.75;4931968;29;20095;-59
2023/01/12 08:47:32;;;;;;;10.88;1.75;;;;;;;7.66;78.37;100625.63;4930568;29;20555;-60
2023/01/12 08:50:01;;;;;;;10.15;1.88;;;;;;;7.72;78.26;100624.47;4934127;29;20172;-59
2023/01/12 08:52:31;;;;;;;8.20;1.70;;;;;;;7.78;78.29;100618.94;4934362;29;20643;-57
2023/01/12 08:54:57;;;;;;;7.97;1.58;;;;;;;7.83;78.03;100618.72;4929744;28;20100;-59
2023/01/12 08:57:22;;;;;;;7.55;1.88;;;;;;;7.88;77.86;100611.47;4923589;29;20088;-56
2023/01/12 08:59:48;;;;;;;11.63;1.50;;;;;;;7.97;77.99;100612.78;4929765;29;20080;-57
2023/01/12 09:02:14;;;;;;;7.15;1.73;;;;;;;8.02;77.57;100605.56;4930370;29;20139;-56
2023/01/12 09:04:40;;;;;;;8.02;2.03;;;;;;;8.06;77.84;100610.56;4930952;29;20187;-57
2023/01/12 09:07:07;;;;;;;9.32;2.55;;;;;;;8.09;77.47;100602.56;4934399;29;20147;-59
2023/01/12 09:09:32;;;;;;;7.38;2.28;;;;;;;8.13;77.42;100598.00;4936695;29;20159;-60
2023/01/12 09:11:58;;;;;;;5.95;1.48;;;;;;;8.14;77.33;100591.00;4931868;28;20246;-59
2023/01/12 09:14:26;;;;;;;7.30;1.45;;;;;;;8.14;77.46;100589.22;4934932;29;20191;-56
2023/01/12 09:16:52;;;;;;;7.97;1.63;;;;;;;8.13;77.83;100590.16;4932812;29;20088;-58
2023/01/12 09:19:18;;;;;;;8.45;2.70;;;;;;;8.12;77.48;100591.06;4932740;29;20077;-57
2023/01/12 09:21:43;;;;;;;8.45;1.58;;;;;;;8.13;77.29;100577.03;4950284;28;20080;-60
2023/01/12 09:24:10;;;;;;;7.75;1.80;;;;;;;8.15;77.33;100587.47;4934435;29;20151;-57
2023/01/12 09:26:42;;;;;;;14.95;2.10;;;;;;;8.16;77.28;100587.38;4934607;28;20123;-56
2023/01/12 09:29:10;;;;;;;5.25;1.40;;;;;;;8.18;77.18;100574.19;4936353;29;20770;-56
2023/01/12 09:31:38;;;;;;;7.45;1.70;;;;;;;8.19;77.30;100574.13;4934402;29;20088;-59
2023/01/12 09:34:03;;;;;;;4.93;1.23;;;;;;;8.21;77.30;100566.19;4932527;29;20102;-59
2023/01/12 09:36:32;;;;;;;6.88;1.30;;;;;;;8.26;77.04;100569.41;4931647;29;20092;-59
2023/01/12 09:39:00;;;;;;;9.48;2.65;;;;;;;8.31;76.94;100567.44;4929640;29;20080;-57
2023/01/12 09:47:34;;;;;;;5.18;1.40;;;;;;;8.52;76.25;100555.00;4932783;29;20451;-56
2023/01/12 09:50:17;;;;;;;8.45;1.70;;;;;;;8.56;76.23;100547.81;4928511;29;20155;-61
2023/01/12 09:52:58;;;;;;;8.55;1.77;;;;;;;8.61;76.22;100547.56;4931100;29;20084;-58
2023/01/12 09:55:28;;;;;;;8.20;1.77;;;;;;;8.64;76.21;100547.41;4934203;29;20119;-58
2023/01/12 09:58:09;;;;;;;7.88;1.20;;;;;;;8.64;75.99;100542.16;4933025;29;20136;-57
2023/01/12 10:00:34;;;;;;;5.10;1.00;;;;;;;8.67;76.14;100534.97;4929105;29;20080;-57
2023/01/12 10:03:05;;;;;;;8.90;1.35;;;;;;;8.64;76.19;100529.06;4936154;29;20527;-62
2023/01/12 10:05:46;;;;;;;6.25;1.60;;;;;;;8.66;76.06;100522.78;4930853;29;20163;-56
2023/01/12 10:08:36;;;;;;;8.27;1.38;;;;;;;8.68;76.05;100520.09;4935388;29;20090;-58
2023/01/12 10:11:27;;;;;;;7.07;1.67;;;;;;;8.72;76.26;100505.03;4932800;29;20151;-58
2023/01/12 10:14:18;;;;;;;4.85;1.33;;;;;;;8.75;75.89;100504.88;4925909;29;20132;-60
2023/01/12 10:17:02;;;;;;;6.47;2.08;;;;;;;8.80;75.88;100502.84;4922864;29;20096;-56
2023/01/12 10:19:43;;;;;;;12.85;1.55;;;;;;;8.79;75.91;100507.25;4928837;29;20651;-56
2023/01/12 10:22:37;;;;;;;2.50;1.23;;;;;;;8.79;76.11;100496.75;4929227;29;20547;-60
2023/01/12 10:25:32;;;;;;;6.50;1.55;;;;;;;8.78;75.80;100484.56;4930028;29;20463;-61
2023/01/12 10:27:59;;;;;;;9.00;1.75;;;;;;;8.78;75.84;100494.19;4932558;29;20558;-60
2023/01/12 10:30:37;;;;;;;9.27;2.78;;;;;;;8.79;75.81;100486.25;4934102;29;20095;-58
2023/01/12 10:33:21;;;;;;;6.88;1.80;;;;;;;8.81;75.76;100487.03;4930671;29;20092;-59
2023/01/12 10:35:58;;;;;;;8.48;1.50;;;;;;;8.84;75.85;100473.75;4930623;29;20155;-56
2023/01/12 10:38:28;;;;;;;5.45;1.90;;;;;;;8.85;75.82;100466.72;4933245;29;20670;-57
2023/01/12 10:41:11;;;;;;;9.65;1.23;;;;;;;8.82;75.77;100469.50;4926049;29;20088;-59
2023/01/12 10:43:39;;;;;;;6.00;1.27;;;;;;;8.81;76.12;100467.81;4934965;29;20609;-57
2023/01/12 10:46:17;;;;;;;6.25;0.95;;;;;;;8.78;75.80;100463.56;4933826;29;20090;-60
2023/01/12 10:48:50;;;;;;;4.15;1.20;;;;;;;8.76;76.02;100464.59;4932656;29;20158;-57
2023/01/12 10:51:35;;;;;;;7.22;1.73;;;;;;;8.81;76.02;100447.69;4930707;28;20098;-60
2023/01/12 10:54:18;;;;;;;5.50;1.63;;;;;;;8.87;75.73;100443.00;4932921;29;20100;-59
2023/01/12 10:57:06;;;;;;;7.47;1.58;;;;;;;8.87;75.78;100438.63;4930531;29;20088;-58
2023/01/12 10:59:36;;;;;;;7.05;1.58;;;;;;;8.89;75.92;100428.88;4948356;28;20115;-59
2023/01/12 11:02:07;;;;;;;9.00;1.15;;;;;;;8.90;75.58;100425.34;4924511;29;20076;-60
2023/01/12 11:04:52;;;;;;;8.45;1.42;;;;;;;8.89;75.54;100422.78;4934147;29;20104;-59
2023/01/12 11:07:29;;;;;;;4.65;1.10;;;;;;;8.92;75.34;100422.59;4935397;29;20103;-59
2023/01/12 11:10:15;;;;;;;5.38;1.02;;;;;;;8.96;75.52;100421.50;4929854;29;20123;-56
2023/01/12 11:12:41;;;;;;;8.15;1.40;;;;;;;9.09;75.12;100414.63;4934500;29;20086;-56
2023/01/12 11:15:09;;;;;;;5.13;1.08;;;;;;;9.21;75.06;100414.88;4934473;29;20084;-59
2023/01/12 11:17:42;;;;;;;8.55;1.45;;;;;;;9.29;74.69;100396.91;4930132;29;20158;-61
2023/01/12 11:20:27;;;;;;;5.47;1.00;;;;;;;9.33;74.52;100401.03;4930467;29;20091;-59
2023/01/12 11:23:00;;;;;;;8.27;1.70;;;;;;;9.38;74.20;100392.88;4932187;29;20184;-55
2023/01/12 11:25:39;;;;;;;4.25;1.20;;;;;;;9.38;74.43;100388.47;4935744;29;20540;-60
2023/01/12 11:28:07;;;;;;;5.07;1.23;;;;;;;9.35;74.33;100396.53;4932665;29;20174;-56
2023/01/12 11:30:47;;;;;;;6.70;2.08;;;;;;;9.29;74.22;100381.97;4930768;29;20080;-56
2023/01/12 11:33:25;;;;;;;5.82;1.15;;;;;;;9.25;74.13;100382.25;4932726;29;20088;-57
2023/01/12 11:36:02;;;;;;;4.10;0.90;;;;;;;9.23;73.93;100379.69;4932851;29;20086;-56
2023/01/12 11:38:37;;;;;;;5.05;1.30;;;;;;;9.22;73.95;100367.53;4924089;29;20088;-60
2023/01/12 11:41:08;;;;;;;7.57;1.27;;;;;;;9.30;73.82;100367.91;4922128;29;20094;-57
2023/01/12 11:43:48;;;;;;;5.47;1.15;;;;;;;9.39;73.66;100363.91;4928833;29;20104;-56
2023/01/12 11:46:17;;;;;;;9.75;1.25;;;;;;;9.52;73.29;100363.19;4930554;29;20126;-57
2023/01/12 11:48:50;;;;;;;6.32;0.90;;;;;;;9.67;72.75;100361.44;4925849;29;20084;-56
2023/01/12 11:51:15;;;;;;;11.50;1.85;;;;;;;9.69;72.71;100357.78;4932446;29;20552;-56
2023/01/12 11:53:42;;;;;;;5.53;1.15;;;;;;;9.63;72.42;100352.88;4945712;23;20218;-59
2023/01/12 11:56:27;;;;;;;6.72;1.27;;;;;;;9.57;72.41;100345.38;4973197;28;20137;-53
2023/01/12 11:59:09;;;;;;;4.50;0.90;;;;;;;9.56;72.35;100339.25;4961015;28;20075;-57
2023/01/12 12:01:50;;;;;;;3.40;0.93;;;;;;;9.55;72.25;100345.44;4966557;28;20102;-57
2023/01/12 12:04:31;;;;;;;5.53;1.53;;;;;;;9.59;72.46;100335.63;4956844;28;20114;-57
2023/01/12 12:07:15;;;;;;;6.13;1.42;;;;;;;9.60;71.93;100337.31;4969421;28;21574;-56
2023/01/12 12:10:04;;;;;;;4.60;0.98;;;;;;;9.61;72.09;100336.34;4963777;28;20075;-58
2023/01/12 12:13:05;;;;;;;6.85;1.38;;;;;;;9.58;72.21;100350.53;4961415;28;20071;-55
2023/01/12 12:15:44;;;;;;;4.95;1.17;;;;;;;9.50;72.53;100328.28;4962978;28;20103;-55
2023/01/12 12:18:24;;;;;;;6.20;1.20;;;;;;;9.45;72.71;100324.13;4965169;28;20090;-56